Time;durP1;ratioP1;P1;durP2;ratioP2;P2;SDS_P1;SDS_P2;PMS_P1;PMS_P2;Temp;Humidity;BMP_temperature;BMP_pressure;BME280_temperature;BME280_humidity;BME280_pressure;Samples;Min_cycle;Max_cycle;Signal;HPM_P1;HPM_P2
2021/09/25 00:02:24;;;;;;;2.70;2.33;;;;;;;17.19;34.10;99598.03;5012795;28;20045;-71
2021/09/25 00:04:50;;;;;;;3.55;2.72;;;;;;;17.25;34.33;99599.38;5013165;28;20022;-71
2021/09/25 00:07:15;;;;;;;5.03;2.25;;;;;;;17.22;34.69;99597.25;5012805;28;20627;-71
2021/09/25 00:09:41;;;;;;;6.07;2.75;;;;;;;17.07;34.95;99598.22;5012878;28;20079;-71
2021/09/25 00:12:11;;;;;;;13.45;8.38;;;;;;;16.96;35.87;99600.84;5012982;28;20040;-71
2021/09/25 00:14:38;;;;;;;;;;;;;;;16.51;36.90;99606.84;5013484;28;20026;-71
2021/09/25 00:17:08;;;;;;;16.80;11.38;;;;;;;16.02;37.42;99613.84;5028155;28;20004;-71
2021/09/25 00:19:34;;;;;;;17.70;10.85;;;;;;;15.80;37.84;99610.50;5011552;28;20037;-71
2021/09/25 00:21:59;;;;;;;11.30;7.32;;;;;;;15.32;38.43;99612.56;5011130;28;20026;-71
2021/09/25 00:24:25;;;;;;;7.93;4.50;;;;;;;15.08;39.37;99620.00;5007001;28;20029;-71
2021/09/25 00:26:51;;;;;;;10.23;4.63;;;;;;;14.98;39.55;99608.13;5007762;28;20085;-71
2021/09/25 00:29:17;;;;;;;7.60;4.72;;;;;;;14.90;39.74;99611.06;5012516;28;20114;-71
2021/09/25 00:31:42;;;;;;;8.23;4.03;;;;;;;14.91;39.80;99601.47;5011308;28;20030;-71
2021/09/25 00:34:08;;;;;;;6.47;3.03;;;;;;;15.20;39.17;99603.00;5011226;28;20361;-71
2021/09/25 00:36:33;;;;;;;4.85;3.90;;;;;;;15.21;39.26;99610.31;5012500;28;20018;-71
2021/09/25 00:38:59;;;;;;;6.68;3.35;;;;;;;15.25;39.02;99604.75;5012189;28;20017;-71
2021/09/25 00:41:24;;;;;;;4.82;3.40;;;;;;;15.26;39.66;99603.56;5012111;28;20026;-71
2021/09/25 00:43:52;;;;;;;6.35;4.00;;;;;;;15.06;39.55;99602.66;5009798;28;20180;-71
2021/09/25 00:46:19;;;;;;;4.88;3.42;;;;;;;15.14;39.50;99599.69;5011227;28;20034;-71
2021/09/25 00:48:45;;;;;;;4.70;3.63;;;;;;;15.13;39.96;99602.84;5013832;28;20026;-71
2021/09/25 00:51:11;;;;;;;6.50;3.97;;;;;;;15.03;39.96;99604.22;5023666;28;20037;-71
2021/09/25 00:53:36;;;;;;;14.88;4.05;;;;;;;14.91;40.63;99604.28;5029083;28;20029;-71
2021/09/25 00:56:03;;;;;;;4.70;3.63;;;;;;;15.16;40.02;99602.94;5030697;28;20013;-71
2021/09/25 00:58:29;;;;;;;7.72;3.47;;;;;;;15.17;39.57;99617.84;5015199;28;20018;-71
2021/09/25 01:00:55;;;;;;;6.20;3.47;;;;;;;15.09;39.63;99610.41;5012172;28;20391;-71
2021/09/25 01:03:20;;;;;;;7.60;4.07;;;;;;;14.91;40.33;99613.53;5012066;28;20376;-71
2021/09/25 01:05:45;;;;;;;4.75;3.63;;;;;;;15.05;40.51;99612.28;5011786;28;20159;-71
2021/09/25 01:08:14;;;;;;;6.43;3.28;;;;;;;14.82;40.90;99616.53;5011836;28;20025;-71
2021/09/25 01:10:40;;;;;;;6.25;3.53;;;;;;;14.65;41.58;99616.81;5010824;28;20029;-71
2021/09/25 01:13:06;;;;;;;8.43;4.25;;;;;;;14.80;41.10;99615.25;5010964;28;20500;-71
2021/09/25 01:15:33;;;;;;;5.50;3.65;;;;;;;14.82;40.40;99622.16;5011787;28;20022;-71
2021/09/25 01:17:58;;;;;;;7.13;4.00;;;;;;;14.76;40.31;99617.97;5010548;28;20032;-71
2021/09/25 01:20:24;;;;;;;9.63;4.03;;;;;;;14.85;40.67;99618.63;5011736;28;20481;-71
2021/09/25 01:22:50;;;;;;;4.65;3.45;;;;;;;14.78;42.83;99617.59;4996852;28;20013;-71
2021/09/25 01:25:15;;;;;;;7.10;3.92;;;;;;;14.67;43.17;99609.66;5011536;28;20018;-71
2021/09/25 01:27:41;;;;;;;5.60;3.78;;;;;;;14.56;43.97;99625.41;5011234;28;20033;-71
2021/09/25 01:30:11;;;;;;;6.53;4.18;;;;;;;14.58;43.78;99628.69;5011833;28;20018;-71
2021/09/25 01:32:38;;;;;;;5.80;3.50;;;;;;;14.76;42.70;99626.41;5000122;28;20030;-71
2021/09/25 01:35:04;;;;;;;5.53;3.63;;;;;;;14.90;41.63;99628.81;5022771;28;20504;-71
2021/09/25 01:37:30;;;;;;;6.20;3.63;;;;;;;15.08;41.49;99625.63;5021171;28;20022;-71
2021/09/25 01:39:55;;;;;;;9.30;3.83;;;;;;;15.13;41.19;99629.00;5025657;28;20032;-71
2021/09/25 01:42:21;;;;;;;5.72;3.72;;;;;;;15.06;41.98;99626.03;5028474;28;20049;-71
2021/09/25 01:44:48;;;;;;;8.18;3.60;;;;;;;15.12;41.67;99626.56;5025598;28;20460;-71
2021/09/25 01:47:14;;;;;;;5.55;3.78;;;;;;;14.99;41.50;99620.19;5017043;28;20077;-71
2021/09/25 01:49:39;;;;;;;11.85;2.90;;;;;;;14.97;41.86;99623.38;5021576;28;20061;-71
2021/09/25 01:52:05;;;;;;;6.90;3.35;;;;;;;14.98;41.84;99624.19;5027790;28;20435;-71
2021/09/25 01:54:31;;;;;;;5.90;3.22;;;;;;;15.07;41.29;99621.19;5008068;28;20037;-71
2021/09/25 01:56:56;;;;;;;8.38;3.33;;;;;;;15.08;41.48;99629.28;5026171;28;20048;-71
2021/09/25 01:59:22;;;;;;;11.05;3.67;;;;;;;15.13;41.58;99622.56;5023007;28;20033;-71
2021/09/25 02:01:47;;;;;;;5.22;3.15;;;;;;;14.99;41.88;99621.00;5026732;28;20057;-71
2021/09/25 02:04:13;;;;;;;5.75;3.50;;;;;;;15.02;41.96;99623.09;5019033;28;20025;-71
2021/09/25 02:06:38;;;;;;;5.72;3.05;;;;;;;15.04;42.05;99624.72;5027174;28;20444;-71
2021/09/25 02:09:04;;;;;;;5.72;3.25;;;;;;;14.99;42.64;99623.00;5018475;28;20025;-72
2021/09/25 02:11:30;;;;;;;6.25;3.00;;;;;;;15.08;42.23;99620.00;5021180;28;20034;-72
2021/09/25 02:13:55;;;;;;;6.65;3.35;;;;;;;15.09;41.97;99621.66;5033537;28;20108;-71
2021/09/25 02:16:21;;;;;;;5.03;3.47;;;;;;;14.92;42.48;99620.81;5034451;28;20025;-71
2021/09/25 02:18:47;;;;;;;13.40;4.38;;;;;;;15.03;41.82;99635.19;5020308;28;20059;-72
2021/09/25 02:21:12;;;;;;;6.82;3.35;;;;;;;15.01;42.12;99618.66;5034312;28;20040;-71
2021/09/25 02:23:38;;;;;;;6.95;3.30;;;;;;;15.09;42.10;99636.56;5020077;28;20030;-72
2021/09/25 02:26:04;;;;;;;3.88;2.80;;;;;;;14.97;42.36;99636.63;5034373;28;20021;-71
2021/09/25 02:28:30;;;;;;;6.15;3.20;;;;;;;14.76;42.58;99626.41;5028438;28;20033;-71
2021/09/25 02:30:57;;;;;;;4.30;3.13;;;;;;;14.63;42.72;99652.94;5031892;28;20044;-71
2021/09/25 02:33:23;;;;;;;6.97;3.63;;;;;;;14.66;42.47;99641.81;5014378;28;20038;-71
2021/09/25 02:35:49;;;;;;;7.57;4.25;;;;;;;14.38;43.05;99653.88;5014707;28;20471;-71
2021/09/25 02:38:16;;;;;;;5.13;3.38;;;;;;;14.32;42.62;99660.91;5014830;28;20544;-71
2021/09/25 02:40:42;;;;;;;5.45;3.55;;;;;;;14.32;43.05;99666.53;5014840;28;20030;-71
2021/09/25 02:43:07;;;;;;;9.18;3.95;;;;;;;14.25;42.90;99663.53;5012908;28;20495;-71
2021/09/25 02:45:34;;;;;;;4.88;3.70;;;;;;;14.32;42.46;99666.53;5013378;28;20619;-71
2021/09/25 02:48:00;;;;;;;4.93;3.25;;;;;;;14.22;42.85;99675.47;5013138;28;20050;-71
2021/09/25 02:50:25;;;;;;;4.50;3.35;;;;;;;14.38;41.78;99679.19;5002802;28;20108;-71
2021/09/25 02:52:51;;;;;;;6.53;3.53;;;;;;;14.42;41.68;99671.66;5014457;28;20541;-71
2021/09/25 02:55:17;;;;;;;5.22;3.53;;;;;;;14.40;41.67;99684.44;5014403;28;20026;-71
2021/09/25 02:57:43;;;;;;;7.28;4.25;;;;;;;14.21;42.16;99680.28;5014090;28;20560;-71
2021/09/25 03:00:13;;;;;;;8.48;3.85;;;;;;;14.10;42.87;99685.56;5014150;28;20499;-71
2021/09/25 03:02:38;;;;;;;6.68;3.58;;;;;;;14.13;42.78;99684.88;5014536;28;20412;-71
2021/09/25 03:05:04;;;;;;;5.20;3.70;;;;;;;14.16;42.55;99684.16;5014267;28;20049;-71
2021/09/25 03:07:30;;;;;;;7.18;3.58;;;;;;;14.15;42.87;99695.75;5012737;28;20040;-71
2021/09/25 03:09:58;;;;;;;8.82;4.72;;;;;;;14.10;42.94;99698.81;5013925;28;20017;-71
2021/09/25 03:12:24;;;;;;;6.07;3.63;;;;;;;13.95;43.62;99704.00;5012287;28;20106;-72
2021/09/25 03:14:49;;;;;;;7.65;3.67;;;;;;;13.94;43.59;99707.97;5014080;28;20038;-72
2021/09/25 03:17:15;;;;;;;10.52;3.53;;;;;;;13.99;43.24;99718.16;5012756;28;20029;-72
2021/09/25 03:19:42;;;;;;;4.85;3.55;;;;;;;13.79;43.61;99715.13;5014103;28;20041;-71
2021/09/25 03:22:07;;;;;;;5.75;3.90;;;;;;;13.93;42.90;99728.00;5013004;28;20033;-71
2021/09/25 03:24:34;;;;;;;7.60;3.97;;;;;;;13.83;42.65;99730.09;5012732;28;20029;-72
2021/09/25 03:27:00;;;;;;;6.05;4.60;;;;;;;13.82;42.70;99733.28;5013417;28;20100;-71
2021/09/25 03:29:26;;;;;;;8.35;4.10;;;;;;;13.67;42.87;99734.78;5013839;28;20038;-71
2021/09/25 03:31:52;;;;;;;7.13;4.78;;;;;;;13.75;43.12;99737.50;5013818;28;20093;-71
2021/09/25 03:34:17;;;;;;;9.63;6.13;;;;;;;13.75;43.31;99745.09;5012226;28;20041;-71
2021/09/25 03:36:43;;;;;;;20.55;6.18;;;;;;;13.62;43.44;99739.44;5013762;28;20030;-71
2021/09/25 03:39:09;;;;;;;10.35;6.70;;;;;;;13.73;43.22;99747.44;5013622;28;20026;-71
2021/09/25 03:41:35;;;;;;;12.60;6.18;;;;;;;13.92;43.00;99749.66;5013204;28;20020;-72
2021/09/25 03:44:01;;;;;;;42.90;6.90;;;;;;;13.75;44.13;99745.09;5013572;28;20484;-71
2021/09/25 03:46:27;;;;;;;18.55;4.57;;;;;;;13.64;45.01;99744.75;5012096;28;20539;-72
2021/09/25 03:48:52;;;;;;;6.22;4.15;;;;;;;13.55;46.10;99755.25;5013332;28;20116;-71
2021/09/25 03:51:18;;;;;;;10.93;3.53;;;;;;;13.73;45.84;99748.28;5011966;28;20040;-71
2021/09/25 03:53:43;;;;;;;4.40;3.53;;;;;;;14.03;44.38;99750.03;5013357;28;20473;-71
2021/09/25 03:56:09;;;;;;;7.88;3.55;;;;;;;14.05;44.49;99756.13;5013268;28;20113;-71
2021/09/25 03:58:35;;;;;;;10.77;3.75;;;;;;;14.22;44.25;99751.41;5013002;28;20081;-71
2021/09/25 04:01:01;;;;;;;5.18;3.25;;;;;;;14.39;44.18;99758.78;5012716;28;20062;-71
2021/09/25 04:03:27;;;;;;;8.00;3.60;;;;;;;14.41;43.83;99762.91;5011663;28;20030;-72
2021/09/25 04:05:54;;;;;;;7.63;3.00;;;;;;;14.58;43.62;99775.06;5013215;28;20045;-71
2021/09/25 04:08:19;;;;;;;13.98;3.80;;;;;;;14.68;43.56;99760.50;5013092;28;20044;-71
2021/09/25 04:10:45;;;;;;;6.88;3.45;;;;;;;14.71;43.03;99764.59;5012913;28;20025;-72
2021/09/25 04:13:11;;;;;;;11.45;3.47;;;;;;;14.86;42.41;99768.69;5011638;28;20037;-72
2021/09/25 04:15:37;;;;;;;4.40;2.95;;;;;;;15.04;42.12;99772.03;5012875;28;20022;-71
2021/09/25 04:18:03;;;;;;;23.92;4.78;;;;;;;15.12;42.02;99781.50;5011887;28;20209;-71
2021/09/25 04:20:28;;;;;;;6.53;3.83;;;;;;;15.16;42.30;99783.25;5012365;28;20026;-72
2021/09/25 04:22:54;;;;;;;9.02;3.72;;;;;;;15.22;42.41;99792.28;5009173;28;20105;-72
2021/09/25 04:25:20;;;;;;;18.20;4.28;;;;;;;15.19;42.95;99795.78;4996852;28;20041;-71
2021/09/25 04:27:49;;;;;;;8.82;3.35;;;;;;;15.02;43.59;99794.91;4996581;28;20104;-72
2021/09/25 04:30:15;;;;;;;8.93;3.38;;;;;;;15.00;43.83;99800.09;5001703;28;20084;-71
2021/09/25 04:32:40;;;;;;;9.48;3.42;;;;;;;14.70;44.89;99806.00;4999063;28;20026;-71
2021/09/25 04:35:07;;;;;;;14.55;3.90;;;;;;;14.71;44.72;99809.63;4993173;28;20048;-71
2021/09/25 04:37:32;;;;;;;20.52;3.55;;;;;;;14.61;44.81;99819.41;4996952;28;20026;-72
2021/09/25 04:39:57;;;;;;;17.73;3.90;;;;;;;14.58;44.96;99814.47;5002981;28;20052;-72
2021/09/25 04:42:23;;;;;;;5.90;3.40;;;;;;;14.59;44.69;99828.19;5000047;28;20058;-72
2021/09/25 04:44:49;;;;;;;4.97;2.83;;;;;;;14.69;44.35;99832.50;4994371;28;20058;-72
2021/09/25 04:47:14;;;;;;;7.28;3.42;;;;;;;14.76;44.15;99836.75;4994620;28;20109;-72
2021/09/25 04:49:39;;;;;;;8.32;3.50;;;;;;;14.81;44.35;99839.31;5003316;28;20058;-71
2021/09/25 04:52:05;;;;;;;12.05;3.45;;;;;;;14.93;44.24;99849.75;5002430;28;20049;-72
2021/09/25 04:54:31;;;;;;;8.60;3.75;;;;;;;15.05;43.60;99844.09;5024987;28;20030;-72
2021/09/25 04:56:56;;;;;;;10.45;3.20;;;;;;;15.16;43.56;99852.84;5016750;28;20026;-72
2021/09/25 04:59:22;;;;;;;4.43;3.08;;;;;;;15.30;43.04;99855.28;5019976;28;20041;-72
2021/09/25 05:01:47;;;;;;;16.23;4.03;;;;;;;15.41;43.17;99858.41;5010675;28;20105;-72
2021/09/25 05:04:13;;;;;;;9.00;3.80;;;;;;;15.57;43.33;99855.63;5027387;28;20029;-72
2021/09/25 05:06:38;;;;;;;11.45;3.45;;;;;;;15.72;42.76;99856.84;5013569;28;20034;-72
2021/09/25 05:09:04;;;;;;;5.97;3.28;;;;;;;15.82;42.73;99856.34;5020936;28;20025;-72
2021/09/25 05:11:29;;;;;;;6.90;3.75;;;;;;;15.95;42.49;99856.28;5009593;28;20025;-72
2021/09/25 05:13:55;;;;;;;4.40;3.83;;;;;;;16.14;42.60;99864.03;5006392;28;20619;-72
2021/09/25 05:16:20;;;;;;;38.53;4.93;;;;;;;16.26;42.40;99847.00;4999809;28;20061;-72
2021/09/25 05:18:46;;;;;;;10.13;4.30;;;;;;;16.44;42.44;99862.75;5000959;28;20029;-72
2021/09/25 05:21:11;;;;;;;10.25;5.03;;;;;;;16.56;42.25;99845.72;5010248;28;20088;-72
2021/09/25 05:23:37;;;;;;;18.10;4.55;;;;;;;16.72;41.40;99851.34;5000415;28;20028;-73
2021/09/25 05:26:06;;;;;;;13.25;6.47;;;;;;;16.88;41.36;99856.13;5009547;28;20077;-73
2021/09/25 05:28:31;;;;;;;13.35;6.30;;;;;;;17.01;41.20;99865.31;5012567;28;20032;-73
2021/09/25 05:30:57;;;;;;;13.75;5.22;;;;;;;17.14;41.14;99860.34;5012579;28;20018;-71
2021/09/25 05:33:22;;;;;;;5.53;3.55;;;;;;;17.25;40.97;99859.41;5002298;28;20026;-71
2021/09/25 05:35:51;;;;;;;11.70;4.80;;;;;;;17.32;40.74;99869.22;5001070;28;20116;-72
2021/09/25 05:38:16;;;;;;;14.57;4.65;;;;;;;17.52;40.38;99878.50;5010272;28;20447;-72
2021/09/25 05:40:42;;;;;;;8.85;4.18;;;;;;;17.64;40.09;99869.06;5011393;28;20022;-73
2021/09/25 05:43:07;;;;;;;8.15;4.03;;;;;;;17.83;39.32;99876.69;5009775;28;20095;-72
2021/09/25 05:45:33;;;;;;;5.63;3.90;;;;;;;17.92;40.15;99880.13;5011161;28;20420;-73
2021/09/25 05:47:58;;;;;;;7.43;3.20;;;;;;;18.03;39.79;99880.34;5011311;28;20025;-73
2021/09/25 05:50:24;;;;;;;12.35;4.18;;;;;;;18.10;39.49;99880.47;5011347;28;20022;-73
2021/09/25 05:52:49;;;;;;;9.02;3.67;;;;;;;18.20;39.30;99879.03;5011394;28;20435;-73
2021/09/25 05:55:16;;;;;;;6.50;3.88;;;;;;;18.44;38.86;99887.50;5011432;28;20022;-72
2021/09/25 05:57:44;;;;;;;13.02;4.97;;;;;;;18.49;38.19;99890.03;5000149;28;20464;-72
2021/09/25 06:00:10;;;;;;;14.65;4.70;;;;;;;18.72;36.49;99886.34;5007634;28;20463;-72
2021/09/25 06:02:40;;;;;;;6.43;4.82;;;;;;;18.80;36.26;99882.41;4999182;28;20022;-72
2021/09/25 06:05:08;;;;;;;31.77;18.83;;;;;;;18.96;35.54;99873.75;5009745;28;20104;-72
2021/09/25 06:07:33;;;;;;;12.23;6.70;;;;;;;19.06;35.66;99877.94;5009671;28;20053;-71
2021/09/25 06:09:59;;;;;;;9.50;3.53;;;;;;;19.10;35.47;99878.84;5010334;28;20499;-72
2021/09/25 06:12:25;;;;;;;5.88;3.50;;;;;;;19.24;34.83;99883.06;5004494;28;20033;-72
2021/09/25 06:14:53;;;;;;;5.45;3.78;;;;;;;19.40;34.63;99874.38;5011679;28;20028;-72
2021/09/25 06:17:19;;;;;;;5.45;3.97;;;;;;;19.46;34.68;99884.97;5015649;28;20032;-72
2021/09/25 06:19:45;;;;;;;16.25;4.65;;;;;;;19.57;35.29;99881.47;5009428;28;20033;-72
2021/09/25 06:22:10;;;;;;;11.70;4.13;;;;;;;19.70;34.62;99882.84;5001909;28;20029;-72
2021/09/25 06:24:35;;;;;;;7.65;3.83;;;;;;;19.83;34.27;99891.09;5013106;28;20022;-72
2021/09/25 06:27:01;;;;;;;5.90;3.53;;;;;;;19.95;34.28;99896.50;5011939;28;20054;-72
2021/09/25 06:29:26;;;;;;;13.13;4.50;;;;;;;20.06;34.39;99888.94;5004412;28;20401;-72
2021/09/25 06:31:52;;;;;;;8.82;4.32;;;;;;;20.19;33.86;99900.00;5017464;28;20030;-73
2021/09/25 06:34:17;;;;;;;6.95;3.92;;;;;;;20.27;34.19;99898.03;5010695;28;20034;-71
2021/09/25 06:36:43;;;;;;;12.45;5.05;;;;;;;20.28;34.38;99897.66;5010182;28;20374;-73
2021/09/25 06:39:08;;;;;;;8.23;4.57;;;;;;;20.39;33.90;99896.91;5007310;28;20125;-73
2021/09/25 06:41:34;;;;;;;8.40;3.90;;;;;;;20.51;33.79;99896.63;5006179;28;20046;-74
2021/09/25 06:44:00;;;;;;;7.78;4.18;;;;;;;20.67;33.63;99901.22;5010940;28;20513;-74
2021/09/25 06:46:25;;;;;;;8.25;4.18;;;;;;;20.79;33.11;99900.09;5014725;28;20064;-74
2021/09/25 06:48:51;;;;;;;16.02;4.30;;;;;;;20.81;32.77;99901.38;5008717;28;20028;-74
2021/09/25 06:51:17;;;;;;;6.50;4.28;;;;;;;20.99;32.77;99897.81;5006162;28;20022;-74
2021/09/25 06:53:43;;;;;;;6.45;4.82;;;;;;;21.01;32.59;99901.09;5019493;28;20033;-74
2021/09/25 06:56:09;;;;;;;11.77;5.30;;;;;;;21.03;33.49;99898.69;5017455;28;20026;-74
2021/09/25 06:58:34;;;;;;;32.08;5.60;;;;;;;20.84;34.42;99909.09;5017482;28;20176;-78
2021/09/25 07:01:00;;;;;;;20.40;4.60;;;;;;;20.89;34.53;99905.06;5026664;28;20536;-73
2021/09/25 07:03:26;;;;;;;11.60;4.75;;;;;;;20.95;35.09;99908.34;5015761;28;20025;-74
2021/09/25 07:05:51;;;;;;;8.13;4.47;;;;;;;20.92;34.71;99906.31;5029834;28;20064;-75
2021/09/25 07:08:17;;;;;;;19.38;6.03;;;;;;;21.01;35.32;99912.47;5009176;28;20119;-76
2021/09/25 07:10:42;;;;;;;11.52;7.40;;;;;;;21.03;34.63;99901.50;5008662;28;20033;-75
2021/09/25 07:13:08;;;;;;;15.40;6.25;;;;;;;21.14;33.85;99904.41;5028281;28;20522;-75
2021/09/25 07:15:33;;;;;;;10.52;5.65;;;;;;;21.16;33.68;99908.50;5023600;28;20048;-75
2021/09/25 07:17:59;;;;;;;5.68;4.35;;;;;;;21.26;33.05;99906.91;5023974;28;20033;-73
2021/09/25 07:20:24;;;;;;;6.78;4.07;;;;;;;21.39;32.44;99915.13;5029175;28;20405;-74
2021/09/25 07:22:53;;;;;;;4.80;3.55;;;;;;;21.52;32.30;99915.59;5018043;28;20049;-74
2021/09/25 07:25:23;;;;;;;4.55;3.20;;;;;;;21.54;32.08;99916.84;5010236;28;20033;-74
2021/09/25 07:27:50;;;;;;;9.40;3.60;;;;;;;21.56;31.43;99922.94;5018555;28;20133;-74
2021/09/25 07:30:16;;;;;;;10.35;4.78;;;;;;;21.63;30.72;99921.31;5013165;28;20060;-75
2021/09/25 07:32:42;;;;;;;4.03;2.85;;;;;;;21.65;30.18;99916.88;5007932;28;20022;-74
2021/09/25 07:35:08;;;;;;;4.20;3.15;;;;;;;21.85;30.28;99925.13;5003191;28;20112;-75
2021/09/25 07:37:34;;;;;;;6.07;3.08;;;;;;;21.99;29.73;99924.31;5011685;28;20030;-73
2021/09/25 07:40:04;;;;;;;4.10;3.03;;;;;;;22.14;29.41;99922.34;5009704;28;20034;-72
2021/09/25 07:42:29;;;;;;;22.38;4.32;;;;;;;22.24;29.90;99915.00;5012326;28;20107;-72
2021/09/25 07:44:55;;;;;;;8.13;3.58;;;;;;;22.47;29.09;99920.34;5006779;28;20038;-74
2021/09/25 07:47:21;;;;;;;10.30;4.25;;;;;;;22.48;29.68;99919.16;5000900;28;20045;-73
2021/09/25 07:49:46;;;;;;;6.28;3.40;;;;;;;22.49;30.19;99920.78;4999602;28;20424;-73
2021/09/25 07:52:12;;;;;;;6.03;3.67;;;;;;;22.56;30.04;99920.81;5000226;28;20030;-75
2021/09/25 07:54:37;;;;;;;6.40;3.25;;;;;;;22.65;29.98;99926.09;5006430;28;20033;-75
2021/09/25 07:57:03;;;;;;;5.65;3.58;;;;;;;22.70;30.46;99927.72;5006181;28;20041;-75
2021/09/25 07:59:28;;;;;;;8.65;4.00;;;;;;;22.75;29.49;99923.66;5003180;28;20036;-75
2021/09/25 08:01:54;;;;;;;6.88;3.72;;;;;;;22.91;30.16;99923.22;5006530;28;20049;-75
2021/09/25 08:04:19;;;;;;;3.85;3.45;;;;;;;22.91;30.23;99911.78;5013512;28;20034;-73
2021/09/25 08:06:45;;;;;;;8.98;3.67;;;;;;;23.06;30.44;99924.84;5013392;28;20043;-75
2021/09/25 08:09:10;;;;;;;9.85;4.47;;;;;;;23.18;30.07;99915.00;5010547;28;20061;-73
2021/09/25 08:11:36;;;;;;;6.68;3.90;;;;;;;23.35;29.57;99916.22;5012279;28;20045;-74
2021/09/25 08:14:02;;;;;;;8.13;4.22;;;;;;;23.58;29.01;99922.66;5002781;28;20046;-75
2021/09/25 08:16:27;;;;;;;8.52;3.70;;;;;;;23.67;29.15;99912.44;5007440;28;20029;-74
2021/09/25 08:18:53;;;;;;;4.93;3.40;;;;;;;23.67;29.60;99914.47;5012303;28;20192;-76
2021/09/25 08:21:20;;;;;;;5.82;4.53;;;;;;;23.67;30.09;99898.16;5012005;28;20040;-76
2021/09/25 08:23:46;;;;;;;9.18;4.20;;;;;;;23.80;29.95;99900.56;5008761;28;20129;-76
2021/09/25 08:26:11;;;;;;;18.48;4.10;;;;;;;23.95;29.93;99906.97;5009566;28;20381;-76
2021/09/25 08:28:37;;;;;;;8.70;3.88;;;;;;;24.17;29.74;99904.84;5011477;28;20512;-77
2021/09/25 08:31:02;;;;;;;17.02;3.85;;;;;;;24.34;28.65;99899.44;5003396;28;20124;-74
2021/09/25 08:33:28;;;;;;;4.47;3.50;;;;;;;24.32;28.71;99897.00;5007139;28;20037;-74
2021/09/25 08:35:54;;;;;;;6.68;3.38;;;;;;;24.39;29.71;99894.06;5011354;28;20480;-75
2021/09/25 08:38:20;;;;;;;5.28;4.07;;;;;;;24.50;29.55;99893.19;5012748;28;20091;-74
2021/09/25 08:40:46;;;;;;;6.75;3.25;;;;;;;24.47;28.91;99891.16;5001366;28;20065;-75
2021/09/25 08:43:12;;;;;;;8.00;3.70;;;;;;;24.44;29.53;99892.81;5009714;28;20774;-75
2021/09/25 08:45:38;;;;;;;9.27;4.40;;;;;;;24.79;28.31;99885.19;5012068;28;20040;-77
2021/09/25 08:48:05;;;;;;;7.80;3.80;;;;;;;24.91;28.42;99892.41;5010577;28;20034;-75
2021/09/25 08:50:30;;;;;;;5.63;3.20;;;;;;;24.87;28.18;99885.94;5009423;28;20080;-75
2021/09/25 08:52:56;;;;;;;22.88;18.42;;;;;;;24.94;27.74;99888.72;5009430;28;20514;-75
2021/09/25 08:55:22;;;;;;;36.13;7.38;;;;;;;25.01;27.93;99879.25;5011862;28;20133;-76
2021/09/25 08:57:47;;;;;;;12.00;2.90;;;;;;;25.08;27.24;99887.75;5006147;28;20025;-77
2021/09/25 09:00:43;;;;;;;6.55;3.05;;;;;;;25.20;27.69;99877.00;5015286;28;20566;-76
2021/09/25 09:03:28;;;;;;;8.40;3.58;;;;;;;25.34;27.49;99876.84;5006846;28;20088;-76
2021/09/25 09:06:25;;;;;;;8.25;2.38;;;;;;;25.42;27.74;99879.59;5006079;28;20064;-77
2021/09/25 09:08:53;;;;;;;15.45;2.55;;;;;;;25.52;28.35;99887.28;5011600;28;20026;-75
2021/09/25 09:11:20;;;;;;;9.93;2.75;;;;;;;25.48;27.87;99872.97;5009824;28;20151;-76
2021/09/25 09:13:47;;;;;;;7.22;3.00;;;;;;;25.61;28.18;99875.31;5018650;28;20088;-76
2021/09/25 09:16:14;;;;;;;7.93;2.33;;;;;;;25.65;28.09;99870.38;5007599;28;20076;-78
2021/09/25 09:18:43;;;;;;;2.47;2.15;;;;;;;25.65;27.50;99858.91;5010970;28;20034;-77
2021/09/25 09:21:15;;;;;;;5.63;2.78;;;;;;;25.67;27.94;99864.19;5008237;28;20026;-77
2021/09/25 09:23:48;;;;;;;3.88;2.70;;;;;;;25.73;27.56;99866.13;5017143;28;20455;-76
2021/09/25 09:26:19;;;;;;;8.50;2.83;;;;;;;25.83;27.89;99867.25;5006472;28;20025;-75
2021/09/25 09:28:46;;;;;;;3.70;2.60;;;;;;;25.89;27.67;99867.59;5002694;28;20027;-76
2021/09/25 09:31:12;;;;;;;3.15;2.53;;;;;;;26.03;27.65;99863.69;5008867;28;20025;-77
2021/09/25 09:33:48;;;;;;;6.75;2.25;;;;;;;26.01;27.10;99866.16;5003456;28;20038;-76
2021/09/25 09:36:35;;;;;;;8.23;3.53;;;;;;;26.15;27.28;99865.16;5007465;28;20029;-76
2021/09/25 09:39:21;;;;;;;4.95;2.40;;;;;;;26.04;27.50;99876.75;5004442;28;20030;-77
2021/09/25 09:41:46;;;;;;;4.05;2.67;;;;;;;26.18;27.09;99870.84;5008320;28;20124;-74
2021/09/25 09:44:14;;;;;;;3.20;2.90;;;;;;;26.25;26.77;99867.06;5009943;28;20025;-74
2021/09/25 09:46:44;;;;;;;3.97;2.95;;;;;;;26.27;26.73;99864.56;5016824;28;20030;-75
2021/09/25 09:49:14;;;;;;;10.20;4.72;;;;;;;26.29;26.68;99873.53;5008744;28;20030;-73
2021/09/25 09:51:40;;;;;;;6.15;3.42;;;;;;;26.24;26.50;99867.50;5010846;28;20497;-71
2021/09/25 09:54:10;;;;;;;6.30;3.67;;;;;;;26.17;27.15;99871.25;5010244;28;20127;-69
2021/09/25 09:56:39;;;;;;;4.28;2.90;;;;;;;26.25;26.79;99869.94;5012798;28;20116;-69
2021/09/25 09:59:05;;;;;;;5.00;3.78;;;;;;;26.45;26.95;99866.31;5007150;28;20392;-68
2021/09/25 10:01:30;;;;;;;5.50;4.82;;;;;;;26.50;26.53;99877.31;5011179;28;20033;-70
2021/09/25 10:03:59;;;;;;;5.82;5.18;;;;;;;26.47;27.06;99867.50;5010258;28;20036;-70
2021/09/25 10:06:24;;;;;;;5.32;3.60;;;;;;;26.74;26.42;99874.44;5008319;28;20024;-69
2021/09/25 10:08:50;;;;;;;11.18;3.63;;;;;;;26.65;26.32;99871.31;5008031;28;20030;-71
2021/09/25 10:11:16;;;;;;;3.67;3.38;;;;;;;26.79;26.09;99871.06;4994083;28;20014;-71
2021/09/25 10:13:42;;;;;;;16.25;10.57;;;;;;;26.86;26.53;99875.84;5016118;28;20369;-71
2021/09/25 10:16:09;;;;;;;7.40;6.63;;;;;;;26.78;26.03;99873.09;5014976;28;20033;-71
2021/09/25 10:18:35;;;;;;;6.65;2.95;;;;;;;26.88;26.01;99864.78;5001328;28;20041;-71
2021/09/25 10:21:03;;;;;;;9.25;3.88;;;;;;;26.83;26.03;99871.00;4994892;28;20045;-71
2021/09/25 10:23:32;;;;;;;11.70;6.78;;;;;;;26.86;25.74;99853.72;4998473;28;20026;-73
2021/09/25 10:25:59;;;;;;;22.35;15.43;;;;;;;26.94;26.58;99856.47;4991717;28;20076;-73
2021/09/25 10:28:30;;;;;;;14.10;5.50;;;;;;;26.98;25.94;99862.97;5005575;28;20014;-73
2021/09/25 10:30:57;;;;;;;12.02;8.63;;;;;;;27.14;25.95;99851.56;5002799;28;20053;-73
2021/09/25 10:33:23;;;;;;;22.58;14.27;;;;;;;27.27;25.86;99853.78;5003288;28;20422;-74
2021/09/25 10:35:53;;;;;;;19.02;12.05;;;;;;;27.23;25.92;99853.06;5006499;28;20030;-74
2021/09/25 10:38:32;;;;;;;8.25;5.93;;;;;;;26.91;26.16;99836.03;5006872;28;20031;-74
2021/09/25 10:41:19;;;;;;;11.00;7.13;;;;;;;27.19;26.34;99844.50;5003858;28;20040;-74
2021/09/25 10:43:46;;;;;;;5.32;3.45;;;;;;;27.49;25.97;99836.91;5001996;28;20488;-74
2021/09/25 10:46:13;;;;;;;17.48;4.20;;;;;;;27.31;26.13;99838.09;5011259;28;20100;-74
2021/09/25 10:48:52;;;;;;;3.55;2.03;;;;;;;27.61;26.30;99827.63;5010472;28;20025;-74
2021/09/25 10:51:20;;;;;;;8.70;4.25;;;;;;;27.51;25.70;99822.91;5019221;28;20033;-74
2021/09/25 10:53:49;;;;;;;5.18;3.05;;;;;;;27.31;25.71;99832.38;5009536;28;20030;-74
2021/09/25 10:56:18;;;;;;;3.45;3.00;;;;;;;27.46;25.96;99832.06;5013430;28;20034;-74
2021/09/25 10:58:52;;;;;;;14.30;10.43;;;;;;;27.46;26.09;99826.31;5005472;28;20037;-74
2021/09/25 11:01:19;;;;;;;7.90;5.80;;;;;;;27.35;26.42;99828.59;5007139;28;20054;-74
2021/09/25 11:03:56;;;;;;;7.15;5.53;;;;;;;27.55;26.46;99823.69;5007010;28;20025;-74
2021/09/25 11:06:38;;;;;;;5.10;4.53;;;;;;;27.69;26.10;99821.75;5007079;28;20112;-74
2021/09/25 11:09:14;;;;;;;4.85;2.65;;;;;;;27.68;26.48;99820.13;5001375;28;20042;-74
2021/09/25 11:11:46;;;;;;;3.42;2.85;;;;;;;27.86;25.59;99816.84;5002344;28;20033;-74
2021/09/25 11:14:22;;;;;;;3.38;2.30;;;;;;;27.98;25.64;99803.81;5007437;28;20157;-74
2021/09/25 11:16:52;;;;;;;2.50;2.30;;;;;;;28.06;25.51;99807.34;5007201;28;20041;-74
2021/09/25 11:19:20;;;;;;;8.70;3.20;;;;;;;28.00;25.59;99805.00;5002193;28;20030;-74
2021/09/25 11:21:50;;;;;;;3.13;1.80;;;;;;;28.05;25.61;99800.78;5007132;28;20519;-74
2021/09/25 11:24:18;;;;;;;7.28;2.40;;;;;;;27.85;25.35;99803.72;5012343;28;20082;-74
2021/09/25 11:26:44;;;;;;;3.47;1.95;;;;;;;27.86;25.43;99794.66;4999972;28;20746;-74
2021/09/25 11:29:11;;;;;;;10.73;2.28;;;;;;;27.88;25.49;99786.41;5007204;28;20100;-74
2021/09/25 11:31:37;;;;;;;2.47;2.08;;;;;;;28.00;25.58;99789.84;5007667;28;20029;-74